Dutzow, MO

8:23 AM CST on December 03, 2016 (GMT -0600)
Washington

Weather History for KFYG - November, 2013

Change the Weather History Date:

Tuesday, November 5, 2013

  Actual Average (KSTL) Record (KSTL)
Temperature  
Mean Temperature 55 °F 52 °F  
Max Temperature 59 °F 61 °F 82 °F (1978)
Min Temperature 51 °F 43 °F 23 °F (1976)
Degree Days  
Heating Degree Days 10 14  
Month to date heating degree days 64  
Since 1 July heating degree days 340  
Cooling Degree Days 0 0  
Month to date cooling degree days 0  
Year to date cooling degree days 1642  
Growing Degree Days 5 (Base 50)    
Moisture  
Dew Point 53 °F    
Average Humidity 91    
Maximum Humidity 100    
Minimum Humidity 77    
Precipitation  
Precipitation 0.00 in 0.13 in 1.62 in (1956)
Month to date precipitation 0.60  
Year to date precipitation 34.81  
Snow  
Snow 0.00 in 0.00 in 3.40 in (1951)
Month to date snowfall 0.0  
Since 1 July snowfall 0.0  
Since 1 September snowfall 0.0  
Snow Depth -    
Sea Level Pressure  
Sea Level Pressure 30.13 in    
Wind  
Wind Speed 7 mph (SE)    
Max Wind Speed 22 mph    
Max Gust Speed 28 mph    
Visibility 8 miles    
Events Rain    
T = Trace of Precipitation, MM = Missing Value Source: NWS Daily Summary

Daily Weather History Graph

Daily Weather History Graph

Search for Another Location

Airport or City:

Trip Planner

Search our weather history database for the weather conditions in past years. The results will help you decide how hot, cold, wet, or windy it might be!

Date:

Astronomy

Nov. 05, 2013 Rise Set
Actual Time 6:35 AM CST 4:59 PM CST
Civil Twilight 6:07 AM CST 5:27 PM CST
Nautical Twilight 5:35 AM CST 5:58 PM CST
Astronomical Twilight 5:04 AM CST 6:29 PM CST
Moon 8:49 AM CST (11/5) 7:02 PM CST (11/5)
Length of Visible Light 11h 19m
Length of Day
10h 24m
Waxing Crescent, 7% of the Moon is Illuminated
Nov 5
Waxing Crescent
Nov 9
First Quarter
Nov 17
Full
Nov 25
Last Quarter
Dec 2
New

Hourly Weather History & Observations

Time (CST) Temp. Dew Point Humidity Pressure Visibility Wind Dir Wind Speed Gust Speed Precip Events Conditions
12:15 AM 55.4 °F 48.2 °F 77% 30.21 in 10.0 mi South 8.1 mph - N/A   Overcast
12:35 AM 55.4 °F 48.2 °F 77% 30.22 in 10.0 mi South 8.1 mph - N/A   Overcast
12:55 AM 55.4 °F 48.2 °F 77% 30.21 in 10.0 mi SSE 6.9 mph - N/A   Overcast
1:15 AM 55.4 °F 48.2 °F 77% 30.21 in 10.0 mi SSE 5.8 mph - N/A   Overcast
1:35 AM 55.4 °F 48.2 °F 77% 30.21 in 10.0 mi SSE 5.8 mph - N/A   Overcast
1:55 AM 55.4 °F 48.2 °F 77% 30.21 in 10.0 mi SSE 4.6 mph - N/A   Overcast
2:15 AM 55.4 °F 50.0 °F 82% 30.21 in 10.0 mi SE 4.6 mph - N/A   Overcast
2:35 AM 55.4 °F 50.0 °F 82% 30.20 in 10.0 mi SE 4.6 mph - N/A   Overcast
2:55 AM 55.4 °F 50.0 °F 82% 30.19 in 10.0 mi SE 5.8 mph - N/A   Overcast
3:15 AM 55.4 °F 50.0 °F 82% 30.19 in 10.0 mi SE 6.9 mph - N/A   Overcast
3:35 AM 55.4 °F 48.2 °F 77% 30.19 in 10.0 mi ESE 5.8 mph - N/A   Overcast
3:55 AM 55.4 °F 48.2 °F 77% 30.21 in 9.0 mi SE 5.8 mph - N/A   Overcast
4:15 AM 53.6 °F 50.0 °F 88% 30.21 in 5.0 mi SE 5.8 mph - N/A   Mostly Cloudy
4:35 AM 53.6 °F 53.6 °F 100% 30.21 in 3.0 mi ESE 3.5 mph - N/A   Partly Cloudy
4:55 AM 53.6 °F 53.6 °F 100% 30.22 in 4.0 mi SE 3.5 mph - N/A   Scattered Clouds
5:15 AM 53.6 °F 53.6 °F 100% 30.22 in 3.0 mi SE 3.5 mph - N/A   Mostly Cloudy
5:35 AM 51.8 °F 51.8 °F 100% 30.22 in 3.0 mi SE 5.8 mph - N/A   Overcast
5:55 AM 51.8 °F 51.8 °F 100% 30.21 in 5.0 mi SE 4.6 mph - N/A   Overcast
6:15 AM 51.8 °F 51.8 °F 100% 30.22 in 9.0 mi SE 4.6 mph - N/A   Overcast
6:35 AM 51.8 °F 51.8 °F 100% 30.22 in 5.0 mi SE 4.6 mph - N/A   Overcast
6:55 AM 51.8 °F 51.8 °F 100% 30.23 in 4.0 mi SE 5.8 mph - N/A Rain Light Rain
7:15 AM 51.8 °F 51.8 °F 100% 30.23 in 3.0 mi SE 6.9 mph - N/A Rain Light Rain
7:35 AM 51.8 °F 51.8 °F 100% 30.23 in 5.0 mi SE 5.8 mph - N/A Rain Light Rain
7:55 AM 51.8 °F 51.8 °F 100% 30.24 in 5.0 mi SE 4.6 mph - N/A   Mostly Cloudy
8:15 AM 51.8 °F 51.8 °F 100% 30.24 in 4.0 mi SE 4.6 mph - N/A   Overcast
8:35 AM 51.8 °F 51.8 °F 100% 30.23 in 8.0 mi ESE 6.9 mph - N/A   Overcast
8:55 AM 53.6 °F 53.6 °F 100% 30.24 in 10.0 mi SE 6.9 mph - N/A   Overcast
9:15 AM 53.6 °F 53.6 °F 100% 30.23 in 8.0 mi ESE 6.9 mph - N/A   Overcast
9:35 AM 53.6 °F 53.6 °F 100% 30.22 in 9.0 mi ESE 8.1 mph - N/A   Overcast
9:55 AM 53.6 °F 53.6 °F 100% 30.22 in 9.0 mi ESE 8.1 mph - N/A   Overcast
10:15 AM 53.6 °F 53.6 °F 100% 30.22 in 10.0 mi SE 6.9 mph - N/A   Overcast
10:35 AM 53.6 °F 53.6 °F 100% 30.21 in 10.0 mi SE 8.1 mph - N/A   Overcast
10:55 AM 55.4 °F 55.4 °F 100% 30.22 in 10.0 mi SE 5.8 mph - N/A   Overcast
11:15 AM 55.4 °F 55.4 °F 100% 30.21 in 6.0 mi SE 6.9 mph - N/A   Mostly Cloudy
11:35 AM 55.4 °F 55.4 °F 100% 30.19 in 9.0 mi SE 8.1 mph - N/A   Mostly Cloudy
11:55 AM 57.2 °F 55.4 °F 94% 30.18 in 10.0 mi SE 8.1 mph - N/A   Partly Cloudy
12:15 PM 57.2 °F 55.4 °F 94% 30.16 in 10.0 mi SSE 10.4 mph - N/A   Partly Cloudy
12:35 PM 57.2 °F 55.4 °F 94% 30.15 in 10.0 mi SSE 8.1 mph - N/A   Scattered Clouds
12:55 PM 59.0 °F 55.4 °F 88% 30.13 in 10.0 mi SE 10.4 mph - N/A   Mostly Cloudy
1:15 PM 59.0 °F 55.4 °F 88% 30.12 in 10.0 mi SSE 11.5 mph - N/A   Overcast
1:35 PM 59.0 °F 55.4 °F 88% 30.11 in 10.0 mi SSE 11.5 mph - N/A   Overcast
1:55 PM 59.0 °F 55.4 °F 88% 30.10 in 10.0 mi SE 6.9 mph - N/A   Overcast
2:15 PM 59.0 °F 55.4 °F 88% 30.09 in 10.0 mi SE 11.5 mph - N/A   Overcast
2:35 PM 59.0 °F 55.4 °F 88% 30.09 in 10.0 mi SE 8.1 mph - N/A   Overcast
2:55 PM 59.0 °F 55.4 °F 88% 30.08 in 9.0 mi SE 8.1 mph - N/A   Overcast
3:15 PM 59.0 °F 55.4 °F 88% 30.08 in 9.0 mi SE 8.1 mph - N/A   Overcast
3:35 PM 59.0 °F 55.4 °F 88% 30.07 in 10.0 mi SE 9.2 mph - N/A   Overcast
3:55 PM 59.0 °F 55.4 °F 88% 30.07 in 3.0 mi SE 9.2 mph - N/A Rain Light Rain
4:15 PM 57.2 °F 57.2 °F 100% 30.06 in 7.0 mi SE 8.1 mph - N/A Rain Light Rain
4:35 PM 57.2 °F 57.2 °F 100% 30.05 in 8.0 mi ESE 10.4 mph - N/A   Overcast
4:55 PM 57.2 °F 57.2 °F 100% 30.04 in 10.0 mi SE 10.4 mph - N/A   Overcast
5:15 PM 59.0 °F 57.2 °F 94% 30.04 in 10.0 mi SE 9.2 mph - N/A   Overcast
5:35 PM 59.0 °F 57.2 °F 94% 30.04 in 10.0 mi SE 9.2 mph - N/A   Overcast
5:55 PM 59.0 °F 57.2 °F 94% 30.05 in 10.0 mi SE 8.1 mph - N/A   Overcast
6:15 PM 59.0 °F 57.2 °F 94% 30.04 in 10.0 mi SSE 13.8 mph - N/A   Overcast
6:35 PM 59.0 °F 55.4 °F 88% 30.04 in 10.0 mi SSE 13.8 mph 19.6 mph N/A   Overcast
6:55 PM 59.0 °F 55.4 °F 88% 30.03 in 10.0 mi SSE 12.7 mph 21.9 mph N/A   Overcast
7:15 PM 59.0 °F 55.4 °F 88% 30.03 in 10.0 mi SSE 17.3 mph - N/A   Overcast
7:35 PM 59.0 °F 53.6 °F 82% 30.04 in 10.0 mi SSE 12.7 mph - N/A   Overcast
7:55 PM 57.2 °F 53.6 °F 88% 30.03 in 10.0 mi SSE 12.7 mph 17.3 mph N/A   Overcast
8:15 PM 57.2 °F 53.6 °F 88% 30.04 in 10.0 mi SSE 9.2 mph - N/A   Overcast
8:35 PM 57.2 °F 53.6 °F 88% 30.03 in 10.0 mi SE 9.2 mph - N/A   Overcast
8:55 PM 57.2 °F 51.8 °F 82% 30.02 in 10.0 mi SE 6.9 mph - N/A   Overcast
9:15 PM 57.2 °F 53.6 °F 88% 30.03 in 10.0 mi SE 6.9 mph - N/A   Overcast
9:35 PM 57.2 °F 51.8 °F 82% 30.02 in 10.0 mi SE 6.9 mph - N/A   Overcast
9:55 PM 57.2 °F 51.8 °F 82% 30.02 in 10.0 mi SE 6.9 mph - N/A   Overcast
10:15 PM 57.2 °F 51.8 °F 82% 30.01 in 10.0 mi SSE 8.1 mph - N/A   Mostly Cloudy
10:35 PM 59.0 °F 55.4 °F 88% 30.01 in 6.0 mi South 21.9 mph 27.6 mph N/A   Overcast
10:55 PM 57.2 °F 57.2 °F 100% 30.00 in 5.0 mi South 15.0 mph 24.2 mph N/A Rain Light Rain
11:15 PM 57.2 °F 57.2 °F 100% 29.98 in 7.0 mi SSE 12.7 mph 20.7 mph N/A   Overcast
11:35 PM 57.2 °F 57.2 °F 100% 29.98 in 9.0 mi South 11.5 mph - N/A Rain Light Rain
11:55 PM 57.2 °F 57.2 °F 100% 29.98 in 10.0 mi SSE 9.2 mph - N/A   Overcast